East Lansing, Michigan
Current Conditions -  °F | °C
As of 8:53 AM on Monday 20 Oct 2014 (Local Time) from KLAN Reporting Station
Few Clouds Few Clouds  
Wind Chill: 43°   Ceiling: Unl
Heat Index: 47°   Visibility: 7mi
Dew Point: 43°   Wind: 8mph
Humidity: 86%   Direction: 200°SSW
Pressure: 29.82"   Gusts: NA
Location:  42.74°N, 84.48°W
Report Text: KLAN 201253Z 20007KT 7SM FEW120 08/06 A2982 RMK AO2 SLP102 T00830061
Loading
Personal Weather Stations






























Interactive Weather Map
Tropical Storm Tracking
New forecast layout! Learn more

10-Day Weather Forecast

Advertisements
Track Severe Weather on mobile